sensor_id;sensor_type;location;lat;lon;timestamp;pressure;altitude;pressure_sealevel;temperature;humidity
60611;BME280;46439;51.164;13.572;2023-06-01T00:00:07;100386.95;;;18.19;100.00
60611;BME280;46439;51.164;13.572;2023-06-01T00:02:38;100388.17;;;18.19;100.00
60611;BME280;46439;51.164;13.572;2023-06-01T00:05:07;100384.33;;;18.16;100.00
60611;BME280;46439;51.164;13.572;2023-06-01T00:07:36;100386.29;;;18.12;100.00
60611;BME280;46439;51.164;13.572;2023-06-01T00:10:06;100390.06;;;18.03;100.00
60611;BME280;46439;51.164;13.572;2023-06-01T00:12:34;100394.09;;;17.96;100.00
60611;BME280;46439;51.164;13.572;2023-06-01T00:15:04;100394.41;;;17.92;100.00
60611;BME280;46439;51.164;13.572;2023-06-01T00:17:33;100393.75;;;17.87;100.00
60611;BME280;46439;51.164;13.572;2023-06-01T00:20:02;100390.25;;;17.83;100.00
60611;BME280;46439;51.164;13.572;2023-06-01T00:22:35;100392.81;;;17.79;100.00
60611;BME280;46439;51.164;13.572;2023-06-01T00:25:08;100393.79;;;17.76;100.00
60611;BME280;46439;51.164;13.572;2023-06-01T00:27:37;100388.89;;;17.74;100.00
60611;BME280;46439;51.164;13.572;2023-06-01T00:30:07;100386.38;;;17.72;100.00
60611;BME280;46439;51.164;13.572;2023-06-01T00:32:36;100386.30;;;17.71;100.00
60611;BME280;46439;51.164;13.572;2023-06-01T00:35:06;100384.40;;;17.70;100.00
60611;BME280;46439;51.164;13.572;2023-06-01T00:37:34;100381.30;;;17.69;100.00
60611;BME280;46439;51.164;13.572;2023-06-01T00:40:03;100381.98;;;17.67;100.00
60611;BME280;46439;51.164;13.572;2023-06-01T00:42:32;100383.38;;;17.63;100.00
60611;BME280;46439;51.164;13.572;2023-06-01T00:45:00;100380.16;;;17.56;100.00
60611;BME280;46439;51.164;13.572;2023-06-01T00:47:29;100378.45;;;17.56;100.00
60611;BME280;46439;51.164;13.572;2023-06-01T00:49:59;100373.89;;;17.52;100.00
60611;BME280;46439;51.164;13.572;2023-06-01T00:52:27;100378.73;;;17.44;100.00
60611;BME280;46439;51.164;13.572;2023-06-01T00:54:56;100377.10;;;17.35;100.00
60611;BME280;46439;51.164;13.572;2023-06-01T00:57:25;100375.49;;;17.28;100.00
60611;BME280;46439;51.164;13.572;2023-06-01T00:59:54;100371.42;;;17.24;100.00
60611;BME280;46439;51.164;13.572;2023-06-01T01:02:23;100375.73;;;17.20;100.00
60611;BME280;46439;51.164;13.572;2023-06-01T01:04:52;100375.83;;;17.21;100.00
60611;BME280;46439;51.164;13.572;2023-06-01T01:07:25;100382.75;;;17.21;100.00
60611;BME280;46439;51.164;13.572;2023-06-01T01:10:19;100380.99;;;17.20;100.00
60611;BME280;46439;51.164;13.572;2023-06-01T01:12:53;100382.80;;;17.18;100.00
60611;BME280;46439;51.164;13.572;2023-06-01T01:15:28;100385.88;;;17.16;100.00
60611;BME280;46439;51.164;13.572;2023-06-01T01:18:04;100383.77;;;17.17;100.00
60611;BME280;46439;51.164;13.572;2023-06-01T01:20:37;100383.73;;;17.15;100.00
60611;BME280;46439;51.164;13.572;2023-06-01T01:23:29;100388.17;;;17.16;100.00
60611;BME280;46439;51.164;13.572;2023-06-01T01:26:20;100383.09;;;17.13;100.00
60611;BME280;46439;51.164;13.572;2023-06-01T01:28:55;100386.08;;;17.12;100.00
60611;BME280;46439;51.164;13.572;2023-06-01T01:31:26;100386.41;;;17.10;100.00
60611;BME280;46439;51.164;13.572;2023-06-01T01:33:58;100384.96;;;17.08;100.00
60611;BME280;46439;51.164;13.572;2023-06-01T01:36:27;100383.54;;;17.06;100.00
60611;BME280;46439;51.164;13.572;2023-06-01T01:38:56;100381.09;;;16.98;100.00
60611;BME280;46439;51.164;13.572;2023-06-01T01:41:24;100381.61;;;16.96;100.00
60611;BME280;46439;51.164;13.572;2023-06-01T01:43:54;100380.34;;;16.95;100.00
60611;BME280;46439;51.164;13.572;2023-06-01T01:46:26;100377.73;;;16.95;100.00
60611;BME280;46439;51.164;13.572;2023-06-01T01:49:05;100378.25;;;16.91;100.00
60611;BME280;46439;51.164;13.572;2023-06-01T01:51:40;100380.26;;;16.88;100.00
60611;BME280;46439;51.164;13.572;2023-06-01T01:54:12;100374.05;;;16.85;100.00
60611;BME280;46439;51.164;13.572;2023-06-01T01:56:41;100370.16;;;16.79;100.00
60611;BME280;46439;51.164;13.572;2023-06-01T01:59:11;100365.97;;;16.74;100.00
60611;BME280;46439;51.164;13.572;2023-06-01T02:01:40;100361.44;;;16.69;100.00
60611;BME280;46439;51.164;13.572;2023-06-01T02:04:12;100358.36;;;16.64;100.00
60611;BME280;46439;51.164;13.572;2023-06-01T02:06:41;100360.30;;;16.62;100.00
60611;BME280;46439;51.164;13.572;2023-06-01T02:09:09;100356.65;;;16.61;100.00
60611;BME280;46439;51.164;13.572;2023-06-01T02:11:38;100358.07;;;16.59;100.00
60611;BME280;46439;51.164;13.572;2023-06-01T02:14:07;100353.92;;;16.56;100.00
60611;BME280;46439;51.164;13.572;2023-06-01T02:16:35;100360.33;;;16.52;100.00
60611;BME280;46439;51.164;13.572;2023-06-01T02:19:04;100359.98;;;16.49;100.00
60611;BME280;46439;51.164;13.572;2023-06-01T02:21:32;100356.55;;;16.45;100.00
60611;BME280;46439;51.164;13.572;2023-06-01T02:24:01;100356.97;;;16.43;100.00
60611;BME280;46439;51.164;13.572;2023-06-01T02:26:33;100360.48;;;16.40;100.00
60611;BME280;46439;51.164;13.572;2023-06-01T02:29:02;100361.83;;;16.38;100.00
60611;BME280;46439;51.164;13.572;2023-06-01T02:31:33;100368.90;;;16.35;100.00
60611;BME280;46439;51.164;13.572;2023-06-01T02:34:02;100363.31;;;16.33;100.00
60611;BME280;46439;51.164;13.572;2023-06-01T02:36:31;100356.35;;;16.31;100.00
60611;BME280;46439;51.164;13.572;2023-06-01T02:39:00;100361.71;;;16.28;100.00
60611;BME280;46439;51.164;13.572;2023-06-01T02:41:28;100358.48;;;16.25;100.00
60611;BME280;46439;51.164;13.572;2023-06-01T02:43:57;100354.08;;;16.18;100.00
60611;BME280;46439;51.164;13.572;2023-06-01T02:46:26;100355.23;;;16.17;100.00
60611;BME280;46439;51.164;13.572;2023-06-01T02:48:55;100352.70;;;16.13;100.00
60611;BME280;46439;51.164;13.572;2023-06-01T02:51:23;100345.49;;;16.10;100.00
60611;BME280;46439;51.164;13.572;2023-06-01T02:53:52;100346.14;;;16.03;100.00
60611;BME280;46439;51.164;13.572;2023-06-01T02:56:20;100351.36;;;15.94;100.00
60611;BME280;46439;51.164;13.572;2023-06-01T02:58:49;100343.75;;;15.88;100.00
60611;BME280;46439;51.164;13.572;2023-06-01T03:01:18;100343.38;;;15.85;100.00
60611;BME280;46439;51.164;13.572;2023-06-01T03:03:48;100342.14;;;15.84;100.00
60611;BME280;46439;51.164;13.572;2023-06-01T03:06:20;100346.35;;;15.79;100.00
60611;BME280;46439;51.164;13.572;2023-06-01T03:08:51;100351.61;;;15.69;100.00
60611;BME280;46439;51.164;13.572;2023-06-01T03:11:20;100349.62;;;15.65;100.00
60611;BME280;46439;51.164;13.572;2023-06-01T03:13:49;100350.03;;;15.63;100.00
60611;BME280;46439;51.164;13.572;2023-06-01T03:16:18;100348.21;;;15.58;100.00
60611;BME280;46439;51.164;13.572;2023-06-01T03:18:47;100350.99;;;15.53;100.00
60611;BME280;46439;51.164;13.572;2023-06-01T03:21:15;100347.59;;;15.53;100.00
60611;BME280;46439;51.164;13.572;2023-06-01T03:23:44;100341.44;;;15.53;100.00
60611;BME280;46439;51.164;13.572;2023-06-01T03:26:13;100340.52;;;15.55;100.00
60611;BME280;46439;51.164;13.572;2023-06-01T03:28:42;100344.43;;;15.59;100.00
60611;BME280;46439;51.164;13.572;2023-06-01T03:31:10;100343.84;;;15.64;100.00
60611;BME280;46439;51.164;13.572;2023-06-01T03:33:39;100347.35;;;15.65;100.00
60611;BME280;46439;51.164;13.572;2023-06-01T03:36:08;100351.57;;;15.62;100.00
60611;BME280;46439;51.164;13.572;2023-06-01T03:38:37;100355.13;;;15.61;100.00
60611;BME280;46439;51.164;13.572;2023-06-01T03:41:05;100354.00;;;15.62;100.00
60611;BME280;46439;51.164;13.572;2023-06-01T03:43:34;100353.17;;;15.63;100.00
60611;BME280;46439;51.164;13.572;2023-06-01T03:46:03;100349.82;;;15.64;100.00
60611;BME280;46439;51.164;13.572;2023-06-01T03:48:31;100352.52;;;15.67;100.00
60611;BME280;46439;51.164;13.572;2023-06-01T03:51:00;100344.79;;;15.70;100.00
60611;BME280;46439;51.164;13.572;2023-06-01T03:53:28;100341.26;;;15.74;100.00
60611;BME280;46439;51.164;13.572;2023-06-01T03:55:59;100344.10;;;15.77;100.00
60611;BME280;46439;51.164;13.572;2023-06-01T03:58:29;100342.96;;;15.81;100.00
60611;BME280;46439;51.164;13.572;2023-06-01T04:00:58;100344.06;;;15.83;100.00
60611;BME280;46439;51.164;13.572;2023-06-01T04:03:29;100345.87;;;15.84;100.00
60611;BME280;46439;51.164;13.572;2023-06-01T04:05:57;100345.05;;;15.85;100.00
60611;BME280;46439;51.164;13.572;2023-06-01T04:08:30;100345.05;;;15.86;100.00
60611;BME280;46439;51.164;13.572;2023-06-01T04:10:58;100346.02;;;15.89;100.00
60611;BME280;46439;51.164;13.572;2023-06-01T04:13:27;100346.64;;;15.87;100.00
60611;BME280;46439;51.164;13.572;2023-06-01T04:15:55;100352.01;;;15.87;100.00
60611;BME280;46439;51.164;13.572;2023-06-01T04:18:24;100357.12;;;15.88;100.00
60611;BME280;46439;51.164;13.572;2023-06-01T04:20:52;100356.81;;;15.88;100.00
60611;BME280;46439;51.164;13.572;2023-06-01T04:23:21;100356.54;;;15.90;100.00
60611;BME280;46439;51.164;13.572;2023-06-01T04:25:50;100355.48;;;15.95;100.00
60611;BME280;46439;51.164;13.572;2023-06-01T04:28:19;100354.98;;;16.01;100.00
60611;BME280;46439;51.164;13.572;2023-06-01T04:30:49;100353.56;;;16.04;100.00
60611;BME280;46439;51.164;13.572;2023-06-01T04:33:19;100355.59;;;16.07;100.00
60611;BME280;46439;51.164;13.572;2023-06-01T04:35:47;100356.19;;;16.12;100.00
60611;BME280;46439;51.164;13.572;2023-06-01T04:38:16;100358.42;;;16.17;100.00
60611;BME280;46439;51.164;13.572;2023-06-01T04:40:44;100356.71;;;16.22;100.00
60611;BME280;46439;51.164;13.572;2023-06-01T04:43:13;100356.86;;;16.26;100.00
60611;BME280;46439;51.164;13.572;2023-06-01T04:45:47;100355.43;;;16.32;100.00
60611;BME280;46439;51.164;13.572;2023-06-01T04:48:16;100349.76;;;16.40;100.00
60611;BME280;46439;51.164;13.572;2023-06-01T04:50:45;100348.51;;;16.45;100.00
60611;BME280;46439;51.164;13.572;2023-06-01T04:53:13;100349.00;;;16.44;100.00
60611;BME280;46439;51.164;13.572;2023-06-01T04:55:42;100345.81;;;16.42;100.00
60611;BME280;46439;51.164;13.572;2023-06-01T04:58:12;100351.89;;;16.39;100.00
60611;BME280;46439;51.164;13.572;2023-06-01T05:00:41;100354.77;;;16.36;100.00
60611;BME280;46439;51.164;13.572;2023-06-01T05:03:09;100353.98;;;16.34;100.00
60611;BME280;46439;51.164;13.572;2023-06-01T05:05:39;100355.91;;;16.36;100.00
60611;BME280;46439;51.164;13.572;2023-06-01T05:08:08;100351.17;;;16.39;100.00
60611;BME280;46439;51.164;13.572;2023-06-01T05:10:37;100348.28;;;16.40;100.00
60611;BME280;46439;51.164;13.572;2023-06-01T05:13:06;100353.74;;;16.43;100.00
60611;BME280;46439;51.164;13.572;2023-06-01T05:15:34;100351.84;;;16.39;100.00
60611;BME280;46439;51.164;13.572;2023-06-01T05:18:03;100350.45;;;16.34;100.00
60611;BME280;46439;51.164;13.572;2023-06-01T05:20:32;100352.83;;;16.30;100.00
60611;BME280;46439;51.164;13.572;2023-06-01T05:23:00;100350.83;;;16.33;100.00
60611;BME280;46439;51.164;13.572;2023-06-01T05:25:29;100352.71;;;16.38;100.00
60611;BME280;46439;51.164;13.572;2023-06-01T05:27:57;100358.44;;;16.43;100.00
60611;BME280;46439;51.164;13.572;2023-06-01T05:30:26;100355.85;;;16.51;100.00
60611;BME280;46439;51.164;13.572;2023-06-01T05:32:54;100358.06;;;16.55;100.00
60611;BME280;46439;51.164;13.572;2023-06-01T05:35:23;100357.52;;;16.59;100.00
60611;BME280;46439;51.164;13.572;2023-06-01T05:37:51;100354.05;;;16.66;100.00
60611;BME280;46439;51.164;13.572;2023-06-01T05:40:20;100356.62;;;16.75;100.00
60611;BME280;46439;51.164;13.572;2023-06-01T05:42:49;100356.89;;;16.79;100.00
60611;BME280;46439;51.164;13.572;2023-06-01T05:45:17;100357.64;;;16.85;100.00
60611;BME280;46439;51.164;13.572;2023-06-01T05:47:46;100357.10;;;16.91;100.00
60611;BME280;46439;51.164;13.572;2023-06-01T05:50:14;100356.84;;;16.96;100.00
60611;BME280;46439;51.164;13.572;2023-06-01T05:52:43;100353.98;;;16.96;100.00
60611;BME280;46439;51.164;13.572;2023-06-01T05:55:12;100355.91;;;16.98;100.00
60611;BME280;46439;51.164;13.572;2023-06-01T05:57:41;100350.08;;;17.02;100.00
60611;BME280;46439;51.164;13.572;2023-06-01T06:00:11;100348.90;;;17.09;100.00
60611;BME280;46439;51.164;13.572;2023-06-01T06:02:44;100348.19;;;17.17;100.00
60611;BME280;46439;51.164;13.572;2023-06-01T06:05:13;100351.52;;;17.25;100.00
60611;BME280;46439;51.164;13.572;2023-06-01T06:07:41;100347.40;;;17.32;100.00
60611;BME280;46439;51.164;13.572;2023-06-01T06:10:11;100346.05;;;17.34;100.00
60611;BME280;46439;51.164;13.572;2023-06-01T06:12:39;100344.24;;;17.35;100.00
60611;BME280;46439;51.164;13.572;2023-06-01T06:15:10;100343.31;;;17.36;100.00
60611;BME280;46439;51.164;13.572;2023-06-01T06:17:38;100338.60;;;17.40;100.00
60611;BME280;46439;51.164;13.572;2023-06-01T06:20:09;100341.10;;;17.45;100.00
60611;BME280;46439;51.164;13.572;2023-06-01T06:22:37;100339.64;;;17.53;100.00
60611;BME280;46439;51.164;13.572;2023-06-01T06:25:07;100338.44;;;17.63;100.00
60611;BME280;46439;51.164;13.572;2023-06-01T06:27:36;100337.45;;;17.72;100.00
60611;BME280;46439;51.164;13.572;2023-06-01T06:30:07;100338.45;;;17.80;100.00
60611;BME280;46439;51.164;13.572;2023-06-01T06:32:36;100336.55;;;17.87;100.00
60611;BME280;46439;51.164;13.572;2023-06-01T06:35:05;100335.99;;;17.99;100.00
60611;BME280;46439;51.164;13.572;2023-06-01T06:37:34;100335.73;;;18.10;100.00
60611;BME280;46439;51.164;13.572;2023-06-01T06:40:03;100335.91;;;18.26;100.00
60611;BME280;46439;51.164;13.572;2023-06-01T06:42:32;100333.91;;;18.49;100.00
60611;BME280;46439;51.164;13.572;2023-06-01T06:45:00;100333.72;;;18.58;100.00
60611;BME280;46439;51.164;13.572;2023-06-01T06:47:29;100331.45;;;18.64;100.00
60611;BME280;46439;51.164;13.572;2023-06-01T06:49:57;100329.20;;;18.68;100.00
60611;BME280;46439;51.164;13.572;2023-06-01T06:52:26;100333.28;;;18.78;100.00
60611;BME280;46439;51.164;13.572;2023-06-01T06:54:54;100332.48;;;18.86;100.00
60611;BME280;46439;51.164;13.572;2023-06-01T06:57:23;100330.13;;;18.88;100.00
60611;BME280;46439;51.164;13.572;2023-06-01T06:59:51;100327.96;;;18.92;100.00
60611;BME280;46439;51.164;13.572;2023-06-01T07:02:20;100327.00;;;18.96;100.00
60611;BME280;46439;51.164;13.572;2023-06-01T07:04:48;100329.08;;;19.07;100.00
60611;BME280;46439;51.164;13.572;2023-06-01T07:07:17;100330.27;;;19.27;100.00
60611;BME280;46439;51.164;13.572;2023-06-01T07:09:45;100327.54;;;19.40;100.00
60611;BME280;46439;51.164;13.572;2023-06-01T07:12:14;100326.63;;;19.43;100.00
60611;BME280;46439;51.164;13.572;2023-06-01T07:14:43;100323.48;;;19.53;100.00
60611;BME280;46439;51.164;13.572;2023-06-01T07:17:11;100322.15;;;19.62;100.00
60611;BME280;46439;51.164;13.572;2023-06-01T07:19:39;100320.80;;;19.66;100.00
60611;BME280;46439;51.164;13.572;2023-06-01T07:22:08;100322.10;;;19.71;100.00
60611;BME280;46439;51.164;13.572;2023-06-01T07:24:37;100323.17;;;19.71;100.00
60611;BME280;46439;51.164;13.572;2023-06-01T07:27:06;100314.89;;;19.69;100.00
60611;BME280;46439;51.164;13.572;2023-06-01T07:29:35;100313.90;;;19.73;100.00
60611;BME280;46439;51.164;13.572;2023-06-01T07:32:06;100315.90;;;19.80;100.00
60611;BME280;46439;51.164;13.572;2023-06-01T07:34:34;100315.98;;;19.87;100.00
60611;BME280;46439;51.164;13.572;2023-06-01T07:37:03;100311.14;;;19.94;100.00
60611;BME280;46439;51.164;13.572;2023-06-01T07:39:32;100309.39;;;20.05;100.00
60611;BME280;46439;51.164;13.572;2023-06-01T07:42:01;100307.59;;;20.11;100.00
60611;BME280;46439;51.164;13.572;2023-06-01T07:44:29;100306.10;;;20.14;100.00
60611;BME280;46439;51.164;13.572;2023-06-01T07:46:58;100306.29;;;20.18;100.00
60611;BME280;46439;51.164;13.572;2023-06-01T07:49:26;100303.73;;;20.26;100.00
60611;BME280;46439;51.164;13.572;2023-06-01T07:51:55;100300.94;;;20.35;100.00
60611;BME280;46439;51.164;13.572;2023-06-01T07:54:25;100298.67;;;20.45;100.00
60611;BME280;46439;51.164;13.572;2023-06-01T07:56:54;100295.88;;;20.50;100.00
60611;BME280;46439;51.164;13.572;2023-06-01T07:59:22;100295.04;;;20.56;100.00
60611;BME280;46439;51.164;13.572;2023-06-01T08:01:52;100296.25;;;20.71;100.00
60611;BME280;46439;51.164;13.572;2023-06-01T08:04:20;100294.37;;;20.82;100.00
60611;BME280;46439;51.164;13.572;2023-06-01T08:06:49;100291.98;;;20.90;100.00
60611;BME280;46439;51.164;13.572;2023-06-01T08:09:21;100296.56;;;20.93;100.00
60611;BME280;46439;51.164;13.572;2023-06-01T08:11:51;100291.68;;;20.98;100.00
60611;BME280;46439;51.164;13.572;2023-06-01T08:14:21;100289.98;;;21.05;100.00
60611;BME280;46439;51.164;13.572;2023-06-01T08:16:50;100290.92;;;21.13;100.00
60611;BME280;46439;51.164;13.572;2023-06-01T08:19:22;100284.63;;;21.27;100.00
60611;BME280;46439;51.164;13.572;2023-06-01T08:21:50;100283.44;;;21.36;100.00
60611;BME280;46439;51.164;13.572;2023-06-01T08:24:20;100277.59;;;21.42;100.00
60611;BME280;46439;51.164;13.572;2023-06-01T08:26:53;100275.52;;;21.52;100.00
60611;BME280;46439;51.164;13.572;2023-06-01T08:29:22;100273.64;;;21.59;100.00
60611;BME280;46439;51.164;13.572;2023-06-01T08:31:51;100273.45;;;21.64;100.00
60611;BME280;46439;51.164;13.572;2023-06-01T08:34:19;100269.89;;;21.67;100.00
60611;BME280;46439;51.164;13.572;2023-06-01T08:36:49;100267.98;;;21.71;100.00
60611;BME280;46439;51.164;13.572;2023-06-01T08:39:24;100263.63;;;21.79;100.00
60611;BME280;46439;51.164;13.572;2023-06-01T08:42:07;100261.51;;;21.89;100.00
60611;BME280;46439;51.164;13.572;2023-06-01T08:44:38;100262.13;;;21.96;100.00
60611;BME280;46439;51.164;13.572;2023-06-01T08:47:08;100258.43;;;22.06;100.00
60611;BME280;46439;51.164;13.572;2023-06-01T08:49:38;100253.35;;;22.14;100.00
60611;BME280;46439;51.164;13.572;2023-06-01T08:52:12;100253.31;;;22.25;100.00
60611;BME280;46439;51.164;13.572;2023-06-01T08:54:41;100250.44;;;22.36;100.00
60611;BME280;46439;51.164;13.572;2023-06-01T08:57:10;100253.84;;;22.45;100.00
60611;BME280;46439;51.164;13.572;2023-06-01T08:59:39;100252.29;;;22.55;100.00
60611;BME280;46439;51.164;13.572;2023-06-01T09:02:08;100254.05;;;22.62;100.00
60611;BME280;46439;51.164;13.572;2023-06-01T09:04:36;100249.63;;;22.68;100.00
60611;BME280;46439;51.164;13.572;2023-06-01T09:07:10;100246.16;;;22.71;100.00
60611;BME280;46439;51.164;13.572;2023-06-01T09:09:39;100247.45;;;22.73;100.00
60611;BME280;46439;51.164;13.572;2023-06-01T09:12:23;100243.61;;;22.78;100.00
60611;BME280;46439;51.164;13.572;2023-06-01T09:14:57;100236.41;;;22.86;100.00
60611;BME280;46439;51.164;13.572;2023-06-01T09:17:35;100240.63;;;22.93;100.00
60611;BME280;46439;51.164;13.572;2023-06-01T09:20:05;100245.27;;;22.98;100.00
60611;BME280;46439;51.164;13.572;2023-06-01T09:22:44;100240.00;;;23.05;100.00
60611;BME280;46439;51.164;13.572;2023-06-01T09:25:14;100238.78;;;23.16;100.00
60611;BME280;46439;51.164;13.572;2023-06-01T09:27:47;100232.88;;;23.24;100.00
60611;BME280;46439;51.164;13.572;2023-06-01T09:30:18;100231.59;;;23.31;100.00
60611;BME280;46439;51.164;13.572;2023-06-01T09:32:47;100227.38;;;23.37;100.00
60611;BME280;46439;51.164;13.572;2023-06-01T09:35:39;100224.60;;;23.46;100.00
60611;BME280;46439;51.164;13.572;2023-06-01T09:38:08;100230.73;;;23.52;100.00
60611;BME280;46439;51.164;13.572;2023-06-01T09:40:38;100236.78;;;23.56;100.00
60611;BME280;46439;51.164;13.572;2023-06-01T09:43:21;100235.39;;;23.64;100.00
60611;BME280;46439;51.164;13.572;2023-06-01T09:46:07;100234.18;;;23.79;100.00
60611;BME280;46439;51.164;13.572;2023-06-01T09:48:36;100231.61;;;23.86;100.00
60611;BME280;46439;51.164;13.572;2023-06-01T09:51:05;100231.86;;;23.89;100.00
60611;BME280;46439;51.164;13.572;2023-06-01T09:53:50;100233.34;;;23.98;100.00
60611;BME280;46439;51.164;13.572;2023-06-01T09:56:18;100229.27;;;23.99;100.00
60611;BME280;46439;51.164;13.572;2023-06-01T09:58:47;100229.36;;;24.03;100.00
60611;BME280;46439;51.164;13.572;2023-06-01T10:01:18;100228.21;;;24.17;100.00
60611;BME280;46439;51.164;13.572;2023-06-01T10:03:47;100220.23;;;24.24;100.00
60611;BME280;46439;51.164;13.572;2023-06-01T10:06:21;100220.98;;;24.31;100.00
60611;BME280;46439;51.164;13.572;2023-06-01T10:08:50;100222.00;;;24.33;100.00
60611;BME280;46439;51.164;13.572;2023-06-01T10:11:21;100221.61;;;24.40;100.00
60611;BME280;46439;51.164;13.572;2023-06-01T10:13:51;100213.48;;;24.44;100.00
60611;BME280;46439;51.164;13.572;2023-06-01T10:16:19;100215.96;;;24.56;100.00
60611;BME280;46439;51.164;13.572;2023-06-01T10:18:48;100215.81;;;24.63;100.00
60611;BME280;46439;51.164;13.572;2023-06-01T10:21:18;100211.10;;;24.69;100.00
60611;BME280;46439;51.164;13.572;2023-06-01T10:23:47;100206.95;;;24.70;100.00
60611;BME280;46439;51.164;13.572;2023-06-01T10:26:17;100209.20;;;24.76;100.00
60611;BME280;46439;51.164;13.572;2023-06-01T10:28:49;100209.20;;;24.85;100.00
60611;BME280;46439;51.164;13.572;2023-06-01T10:31:36;100209.23;;;24.91;100.00
60611;BME280;46439;51.164;13.572;2023-06-01T10:34:05;100209.19;;;24.93;100.00
60611;BME280;46439;51.164;13.572;2023-06-01T10:37:12;100207.02;;;25.00;100.00
60611;BME280;46439;51.164;13.572;2023-06-01T10:39:42;100197.30;;;25.12;100.00
60611;BME280;46439;51.164;13.572;2023-06-01T10:45:39;100190.81;;;25.22;100.00
60611;BME280;46439;51.164;13.572;2023-06-01T10:48:09;100186.40;;;25.29;100.00
60611;BME280;46439;51.164;13.572;2023-06-01T10:50:40;100182.64;;;25.30;100.00
60611;BME280;46439;51.164;13.572;2023-06-01T10:53:25;100182.64;;;25.27;100.00
60611;BME280;46439;51.164;13.572;2023-06-01T10:59:14;100181.02;;;25.36;100.00
60611;BME280;46439;51.164;13.572;2023-06-01T11:01:44;100177.00;;;25.48;100.00
60611;BME280;46439;51.164;13.572;2023-06-01T11:04:13;100173.86;;;25.54;100.00
60611;BME280;46439;51.164;13.572;2023-06-01T11:06:43;100168.01;;;25.56;100.00
60611;BME280;46439;51.164;13.572;2023-06-01T11:09:13;100167.91;;;25.59;100.00
60611;BME280;46439;51.164;13.572;2023-06-01T11:12:02;100165.52;;;25.60;100.00
60611;BME280;46439;51.164;13.572;2023-06-01T11:14:31;100164.28;;;25.74;100.00
60611;BME280;46439;51.164;13.572;2023-06-01T11:17:28;100160.55;;;25.90;100.00
60611;BME280;46439;51.164;13.572;2023-06-01T11:20:02;100157.73;;;25.97;100.00
60611;BME280;46439;51.164;13.572;2023-06-01T11:22:37;100157.35;;;26.00;100.00
60611;BME280;46439;51.164;13.572;2023-06-01T11:25:12;100150.55;;;25.97;100.00
60611;BME280;46439;51.164;13.572;2023-06-01T11:27:45;100148.34;;;25.99;100.00
60611;BME280;46439;51.164;13.572;2023-06-01T11:30:19;100145.90;;;26.04;100.00
60611;BME280;46439;51.164;13.572;2023-06-01T11:32:50;100143.64;;;26.08;100.00
60611;BME280;46439;51.164;13.572;2023-06-01T11:35:22;100136.10;;;26.18;100.00
60611;BME280;46439;51.164;13.572;2023-06-01T11:37:56;100143.84;;;26.30;100.00
60611;BME280;46439;51.164;13.572;2023-06-01T11:40:25;100135.90;;;26.39;100.00
60611;BME280;46439;51.164;13.572;2023-06-01T11:42:54;100129.92;;;26.38;100.00
60611;BME280;46439;51.164;13.572;2023-06-01T11:45:22;100131.64;;;26.41;100.00
60611;BME280;46439;51.164;13.572;2023-06-01T11:47:51;100136.48;;;26.52;100.00
60611;BME280;46439;51.164;13.572;2023-06-01T11:50:23;100126.40;;;26.58;100.00
60611;BME280;46439;51.164;13.572;2023-06-01T11:52:52;100125.96;;;26.62;100.00
60611;BME280;46439;51.164;13.572;2023-06-01T11:55:22;100127.52;;;26.61;100.00
60611;BME280;46439;51.164;13.572;2023-06-01T11:57:50;100126.96;;;26.53;100.00
60611;BME280;46439;51.164;13.572;2023-06-01T12:00:21;100119.94;;;26.50;100.00
60611;BME280;46439;51.164;13.572;2023-06-01T12:02:49;100122.21;;;26.51;100.00
60611;BME280;46439;51.164;13.572;2023-06-01T12:05:40;100121.55;;;26.45;100.00
60611;BME280;46439;51.164;13.572;2023-06-01T12:08:20;100117.58;;;26.40;100.00
60611;BME280;46439;51.164;13.572;2023-06-01T12:10:48;100119.89;;;26.45;100.00
60611;BME280;46439;51.164;13.572;2023-06-01T12:13:18;100119.44;;;26.50;100.00
60611;BME280;46439;51.164;13.572;2023-06-01T12:15:47;100112.13;;;26.49;100.00
60611;BME280;46439;51.164;13.572;2023-06-01T12:18:22;100115.23;;;26.52;100.00
60611;BME280;46439;51.164;13.572;2023-06-01T12:20:56;100116.38;;;26.63;100.00
60611;BME280;46439;51.164;13.572;2023-06-01T12:23:25;100113.48;;;26.69;100.00
60611;BME280;46439;51.164;13.572;2023-06-01T12:25:55;100112.91;;;26.73;100.00
60611;BME280;46439;51.164;13.572;2023-06-01T12:28:28;100111.37;;;26.73;100.00
60611;BME280;46439;51.164;13.572;2023-06-01T12:31:14;100108.34;;;26.68;100.00
60611;BME280;46439;51.164;13.572;2023-06-01T12:33:44;100101.84;;;26.74;100.00
60611;BME280;46439;51.164;13.572;2023-06-01T12:36:29;100100.11;;;26.77;100.00
60611;BME280;46439;51.164;13.572;2023-06-01T12:39:02;100100.81;;;26.81;100.00
60611;BME280;46439;51.164;13.572;2023-06-01T12:41:34;100096.05;;;26.81;100.00
60611;BME280;46439;51.164;13.572;2023-06-01T12:44:03;100090.34;;;26.82;100.00
60611;BME280;46439;51.164;13.572;2023-06-01T12:46:32;100092.32;;;26.85;100.00
60611;BME280;46439;51.164;13.572;2023-06-01T12:49:15;100086.13;;;26.95;100.00
60611;BME280;46439;51.164;13.572;2023-06-01T12:51:45;100093.39;;;27.03;100.00
60611;BME280;46439;51.164;13.572;2023-06-01T12:54:14;100091.06;;;27.03;100.00